Time;durP1;ratioP1;P1;durP2;ratioP2;P2;SDS_P1;SDS_P2;PMS_P1;PMS_P2;Temp;Humidity;BMP_temperature;BMP_pressure;BME280_temperature;BME280_humidity;BME280_pressure;Samples;Min_cycle;Max_cycle;Signal;HPM_P1;HPM_P2
2021/05/01 05:56:29;;;;;;;42.63;26.30;;;9.80;99.90;;;;;;5107604;27;20563;-69
2021/05/01 05:58:56;;;;;;;42.97;26.60;;;9.60;99.90;;;;;;5108228;28;20440;-68
2021/05/01 06:01:26;;;;;;;37.10;26.20;;;9.80;99.90;;;;;;5107472;28;20588;-68
2021/05/01 06:03:55;;;;;;;37.47;26.50;;;9.70;99.90;;;;;;5108582;28;20439;-67
2021/05/01 06:06:26;;;;;;;37.90;24.13;;;9.40;99.90;;;;;;5107778;28;20800;-68
2021/05/01 06:08:53;;;;;;;34.23;23.03;;;9.20;99.90;;;;;;5107806;28;20469;-67
2021/05/01 06:11:20;;;;;;;36.20;23.90;;;9.40;99.90;;;;;;5107736;28;20436;-68
2021/05/01 06:13:48;;;;;;;37.33;23.90;;;9.40;99.90;;;;;;5108093;28;20931;-67
2021/05/01 06:16:16;;;;;;;33.03;23.30;;;9.30;99.90;;;;;;5107043;28;20493;-68
2021/05/01 06:18:44;;;;;;;33.17;23.10;;;9.40;99.90;;;;;;5107973;28;20452;-68
2021/05/01 06:21:11;;;;;;;31.53;23.37;;;9.30;99.90;;;;;;5107984;28;20452;-67
2021/05/01 06:23:38;;;;;;;28.67;21.63;;;9.50;99.90;;;;;;5107475;28;20443;-68
2021/05/01 06:26:05;;;;;;;31.10;22.10;;;9.30;99.90;;;;;;5108021;28;20454;-68
2021/05/01 06:28:32;;;;;;;32.60;23.37;;;9.40;99.90;;;;;;5106856;28;20536;-68
2021/05/01 06:31:01;;;;;;;28.43;21.17;;;9.50;99.90;;;;;;5108039;28;20444;-67
2021/05/01 06:33:28;;;;;;;34.00;23.17;;;9.30;99.90;;;;;;5107267;28;20886;-68
2021/05/01 06:35:56;;;;;;;34.47;22.40;;;9.30;99.90;;;;;;5107947;28;20982;-67
2021/05/01 06:38:23;;;;;;;31.20;21.43;;;9.20;99.90;;;;;;5106672;28;20436;-72
2021/05/01 06:40:54;;;;;;;28.33;20.40;;;9.20;99.90;;;;;;5106021;28;20493;-67
2021/05/01 06:43:35;;;;;;;28.17;19.40;;;9.30;99.90;;;;;;5107062;28;20444;-67
2021/05/01 06:46:03;;;;;;;27.37;21.10;;;9.30;99.90;;;;;;5106046;28;20440;-67
2021/05/01 06:48:34;;;;;;;25.40;18.30;;;9.40;99.90;;;;;;5105972;28;20444;-67
2021/05/01 06:51:02;;;;;;;26.97;18.10;;;9.50;99.90;;;;;;5094651;28;20436;-67
2021/05/01 06:53:30;;;;;;;28.37;18.13;;;9.40;99.90;;;;;;5105476;28;20530;-67
2021/05/01 06:56:00;;;;;;;28.50;19.27;;;9.30;99.90;;;;;;5106338;28;21022;-68
2021/05/01 06:58:27;;;;;;;26.63;18.47;;;9.30;99.90;;;;;;5105728;28;20435;-67
2021/05/01 07:00:54;;;;;;;25.30;17.77;;;9.60;99.90;;;;;;5107187;28;20538;-68
2021/05/01 07:03:23;;;;;;;30.60;19.33;;;9.80;24.80;;;;;;5106816;28;20478;-67
2021/05/01 07:05:51;;;;;;;25.30;16.57;;;9.70;51.00;;;;;;5102906;28;20456;-67
2021/05/01 07:08:18;;;;;;;19.50;14.80;;;9.70;8.00;;;;;;5091153;28;20539;-67
2021/05/01 07:10:44;;;;;;;23.47;17.80;;;9.80;1.00;;;;;;5088267;28;20454;-67
2021/05/01 07:13:14;;;;;;;22.03;16.80;;;9.90;1.00;;;;;;5091326;28;20531;-67
2021/05/01 07:15:41;;;;;;;22.40;15.83;;;9.70;1.00;;;;;;5092111;28;20542;-67
2021/05/01 07:18:10;;;;;;;22.20;17.10;;;9.70;1.00;;;;;;5091224;28;20452;-66
2021/05/01 07:20:37;;;;;;;25.70;19.47;;;9.80;18.50;;;;;;5090698;28;20933;-67
2021/05/01 07:23:04;;;;;;;27.17;19.73;;;9.90;4.50;;;;;;5092024;28;20440;-66
2021/05/01 07:25:31;;;;;;;25.53;19.07;;;10.10;1.00;;;;;;5090975;28;21356;-66
2021/05/01 07:28:03;;;;;;;24.40;17.07;;;9.90;1.00;;;;;;5092385;28;20444;-67
2021/05/01 07:30:31;;;;;;;23.33;18.20;;;9.90;1.00;;;;;;5090246;28;20453;-66
2021/05/01 07:33:02;;;;;;;25.63;17.93;;;9.70;51.10;;;;;;5089226;28;20445;-66
2021/05/01 07:35:31;;;;;;;24.63;17.77;;;9.70;52.80;;;;;;5088870;28;20886;-65
2021/05/01 07:38:06;;;;;;;23.20;17.73;;;9.80;57.80;;;;;;5093263;28;20559;-66
2021/05/01 07:40:33;;;;;;;29.40;19.10;;;9.80;92.30;;;;;;5092930;28;20437;-66
2021/05/01 07:43:02;;;;;;;22.27;17.43;;;9.80;99.90;;;;;;5093562;28;20535;-66
2021/05/01 07:45:29;;;;;;;26.63;18.03;;;9.90;99.90;;;;;;5092824;28;20888;-66
2021/05/01 07:47:56;;;;;;;22.97;17.50;;;9.90;99.90;;;;;;5093231;28;20441;-65
2021/05/01 07:50:23;;;;;;;26.07;18.50;;;9.90;99.90;;;;;;5092291;28;20452;-66
2021/05/01 07:52:51;;;;;;;24.53;18.10;;;9.90;99.90;;;;;;5093144;28;20470;-66
2021/05/01 07:55:19;;;;;;;27.77;19.90;;;9.90;99.90;;;;;;5091963;28;20538;-65
2021/05/01 07:57:46;;;;;;;27.97;19.60;;;9.90;99.90;;;;;;5092952;28;20440;-65
2021/05/01 08:00:14;;;;;;;25.70;17.97;;;10.10;99.90;;;;;;5091625;28;20441;-66
2021/05/01 08:02:41;;;;;;;24.00;17.87;;;10.10;88.70;;;;;;5089145;28;20441;-66
2021/05/01 08:05:09;;;;;;;21.90;16.67;;;10.10;3.50;;;;;;5092016;28;20696;-66
2021/05/01 08:07:35;;;;;;;24.23;17.67;;;10.00;1.00;;;;;;5092605;28;20445;-65
2021/05/01 08:10:03;;;;;;;26.27;17.73;;;10.10;4.90;;;;;;5092132;28;20476;-65
2021/05/01 08:12:30;;;;;;;25.80;18.00;;;10.20;14.10;;;;;;5091843;28;20527;-65
2021/05/01 08:14:56;;;;;;;21.77;16.20;;;10.40;1.00;;;;;;5092233;28;20483;-65
2021/05/01 08:17:23;;;;;;;24.33;16.17;;;10.20;1.00;;;;;;5091366;28;20445;-65
2021/05/01 08:19:52;;;;;;;26.60;17.00;;;10.20;1.00;;;;;;5091475;28;20525;-66
2021/05/01 08:22:18;;;;;;;23.37;17.90;;;10.10;62.00;;;;;;5091643;28;20450;-66
2021/05/01 08:24:45;;;;;;;25.50;17.50;;;10.10;99.90;;;;;;5091421;28;20449;-66
2021/05/01 08:27:11;;;;;;;24.20;16.53;;;10.30;41.10;;;;;;5085753;28;20539;-66
2021/05/01 08:29:38;;;;;;;21.33;17.00;;;10.40;99.90;;;;;;5085511;28;20450;-67
2021/05/01 08:32:05;;;;;;;26.60;16.97;;;10.50;99.90;;;;;;5087878;28;20796;-67
2021/05/01 08:34:31;;;;;;;24.13;17.90;;;10.40;45.70;;;;;;5084247;28;20515;-67
2021/05/01 08:36:58;;;;;;;22.63;16.73;;;10.10;1.00;;;;;;5087290;28;20464;-67
2021/05/01 08:39:25;;;;;;;22.20;16.23;;;10.10;1.00;;;;;;5085553;28;20444;-67
2021/05/01 08:41:51;;;;;;;18.97;15.63;;;10.30;1.00;;;;;;5087908;28;20437;-67
2021/05/01 08:44:17;;;;;;;21.37;16.20;;;10.20;1.00;;;;;;5086845;28;20883;-67
2021/05/01 08:46:46;;;;;;;22.03;15.43;;;10.40;1.00;;;;;;5087190;28;20536;-67
2021/05/01 08:49:13;;;;;;;22.80;16.20;;;10.70;1.00;;;;;;5078094;28;20528;-66
2021/05/01 08:51:42;;;;;;;24.23;15.93;;;10.80;99.90;;;;;;5088276;28;20452;-67
2021/05/01 08:54:11;;;;;;;24.00;15.83;;;10.90;99.90;;;;;;5078313;28;20552;-67
2021/05/01 08:56:38;;;;;;;21.93;16.90;;;10.80;99.90;;;;;;5087394;28;20990;-67
2021/05/01 08:59:04;;;;;;;26.23;18.20;;;10.60;99.90;;;;;;5088730;28;20523;-66
2021/05/01 09:01:31;;;;;;;25.03;16.23;;;10.50;1.00;;;;;;5087197;28;20807;-66
2021/05/01 09:04:01;;;;;;;20.47;15.77;;;10.20;1.00;;;;;;5087270;28;20452;-66
2021/05/01 09:06:27;;;;;;;20.50;15.73;;;10.40;1.00;;;;;;5086585;28;20465;-66
2021/05/01 09:08:55;;;;;;;20.50;15.20;;;10.60;1.00;;;;;;5087141;28;20441;-65
2021/05/01 09:11:33;;;;;;;21.93;15.13;;;10.70;1.00;;;;;;5086537;28;20531;-65
2021/05/01 09:13:59;;;;;;;19.80;14.93;;;11.00;99.90;;;;;;5088248;28;20728;-66
2021/05/01 09:16:26;;;;;;;19.40;13.70;;;11.20;99.90;;;;;;5087950;28;20533;-65
2021/05/01 09:18:55;;;;;;;18.67;14.80;;;11.20;99.90;;;;;;5088934;28;20532;-67
2021/05/01 09:21:23;;;;;;;24.67;16.40;;;11.20;99.90;;;;;;5088194;28;20758;-66
2021/05/01 09:23:50;;;;;;;18.87;14.50;;;11.20;99.90;;;;;;5088581;28;20484;-66
2021/05/01 09:26:20;;;;;;;16.60;14.10;;;11.30;1.00;;;;;;5087892;28;20806;-66
2021/05/01 09:28:49;;;;;;;19.57;15.73;;;11.10;61.70;;;;;;5087883;28;20863;-66
2021/05/01 09:31:17;;;;;;;21.03;14.83;;;11.20;99.90;;;;;;5088092;28;20532;-66
2021/05/01 09:33:48;;;;;;;21.47;16.10;;;11.20;79.00;;;;;;5086901;28;20448;-67
2021/05/01 09:36:16;;;;;;;21.93;16.30;;;11.10;99.90;;;;;;5087773;28;21051;-66
2021/05/01 09:38:44;;;;;;;22.10;15.50;;;10.90;99.90;;;;;;5078855;28;20539;-66
2021/05/01 09:41:14;;;;;;;55.97;35.23;;;11.10;99.90;;;;;;5088233;28;20461;-71
2021/05/01 09:44:02;;;;;;;18.60;14.67;;;11.10;1.00;;;;;;5088270;28;20804;-66
2021/05/01 09:46:29;;;;;;;17.57;14.13;;;11.10;99.90;;;;;;5086815;28;20867;-66
2021/05/01 09:49:09;;;;;;;20.93;14.97;;;11.20;99.90;;;;;;5088046;28;20470;-66
2021/05/01 09:51:51;;;;;;;72.33;47.77;;;11.10;1.00;;;;;;5080514;28;20442;-65
2021/05/01 09:54:24;;;;;;;27.97;18.00;;;11.50;99.90;;;;;;5087362;28;20460;-65
2021/05/01 09:56:50;;;;;;;20.10;15.10;;;11.60;99.90;;;;;;5088064;28;20531;-65
2021/05/01 09:59:17;;;;;;;16.80;14.30;;;11.40;58.20;;;;;;5087406;28;20606;-65
2021/05/01 10:01:56;;;;;;;18.33;14.67;;;11.50;99.90;;;;;;5087318;28;20480;-67
2021/05/01 10:04:22;;;;;;;17.80;13.97;;;11.30;99.90;;;;;;5080344;28;20947;-67
2021/05/01 10:06:51;;;;;;;20.23;16.13;;;11.50;1.00;;;;;;5087258;28;20432;-66
2021/05/01 10:09:26;;;;;;;20.37;14.90;;;11.40;1.00;;;;;;5087850;28;20456;-66
2021/05/01 10:12:01;;;;;;;21.23;14.10;;;11.40;99.90;;;;;;5083867;28;20505;-66
2021/05/01 10:14:36;;;;;;;23.60;17.73;;;11.80;99.90;;;;;;5085925;28;20788;-66
2021/05/01 10:17:02;;;;;;;20.40;14.90;;;11.90;1.00;;;;;;5084686;28;20448;-67
2021/05/01 10:19:53;;;;;;;19.07;14.90;;;11.90;1.00;;;;;;5086255;28;20483;-66
2021/05/01 10:22:27;;;;;;;23.13;15.53;;;11.90;1.00;;;;;;5085955;28;20445;-66
2021/05/01 10:24:56;;;;;;;18.60;14.13;;;12.00;1.00;;;;;;5085984;28;20459;-65
2021/05/01 10:27:23;;;;;;;18.33;14.37;;;12.40;1.00;;;;;;5084487;28;20535;-66
2021/05/01 10:30:03;;;;;;;23.27;16.70;;;12.50;4.10;;;;;;5086246;28;20445;-66
2021/05/01 10:32:31;;;;;;;19.53;14.30;;;12.10;1.00;;;;;;5084145;28;20964;-66
2021/05/01 10:34:59;;;;;;;19.77;14.90;;;12.30;1.00;;;;;;5084346;28;20492;-66
2021/05/01 10:37:30;;;;;;;19.87;14.90;;;12.20;97.90;;;;;;5085679;28;20448;-66
2021/05/01 10:39:58;;;;;;;21.27;17.00;;;12.30;99.90;;;;;;5074189;28;20476;-66
2021/05/01 10:42:25;;;;;;;22.17;17.40;;;12.00;1.00;;;;;;5089992;28;20447;-66
2021/05/01 10:44:58;;;;;;;27.73;19.27;;;12.10;99.90;;;;;;5091350;28;20436;-67
2021/05/01 10:47:24;;;;;;;25.10;18.53;;;12.20;99.90;;;;;;5090358;28;20761;-66
2021/05/01 10:49:51;;;;;;;23.87;19.03;;;12.60;1.00;;;;;;5091033;28;20535;-67
2021/05/01 10:52:19;;;;;;;20.70;16.43;;;12.80;9.60;;;;;;5090240;28;20551;-66
2021/05/01 10:55:00;;;;;;;26.13;18.47;;;12.60;1.00;;;;;;5090769;28;20614;-67
2021/05/01 10:57:27;;;;;;;24.60;18.67;;;12.40;1.00;;;;;;5090637;28;20536;-67
2021/05/01 10:59:59;;;;;;;26.20;19.27;;;12.20;1.00;;;;;;5091135;28;20567;-66
2021/05/01 11:02:34;;;;;;;25.30;18.77;;;12.40;99.90;;;;;;5091024;28;20535;-66
2021/05/01 11:05:02;;;;;;;23.60;18.00;;;12.50;1.00;;;;;;5089850;28;20532;-65
2021/05/01 11:07:50;;;;;;;22.80;18.07;;;12.40;99.90;;;;;;5090654;28;20444;-67
2021/05/01 11:10:18;;;;;;;24.40;18.73;;;12.30;99.90;;;;;;5090481;28;20876;-66
2021/05/01 11:12:51;;;;;;;22.40;18.77;;;12.00;99.90;;;;;;5091066;28;20456;-65
2021/05/01 11:15:20;;;;;;;22.67;17.97;;;12.00;99.90;;;;;;5090238;28;20484;-65
2021/05/01 11:17:52;;;;;;;23.10;17.53;;;11.90;1.00;;;;;;5090827;28;20451;-66
2021/05/01 11:20:20;;;;;;;23.30;18.20;;;12.10;99.90;;;;;;5091286;28;20478;-66
2021/05/01 11:22:51;;;;;;;26.53;18.40;;;12.30;1.00;;;;;;5093231;28;20479;-66
2021/05/01 11:25:19;;;;;;;25.47;18.60;;;12.10;1.00;;;;;;5093832;28;20458;-66
2021/05/01 11:27:48;;;;;;;21.40;16.50;;;12.10;99.90;;;;;;5093262;28;20868;-66
2021/05/01 11:30:16;;;;;;;24.10;18.40;;;12.00;1.00;;;;;;5092286;28;20962;-66
2021/05/01 11:32:45;;;;;;;26.20;18.73;;;11.70;31.40;;;;;;5092717;28;20436;-66
2021/05/01 11:35:13;;;;;;;23.50;17.87;;;11.90;99.90;;;;;;5093131;28;20566;-66
2021/05/01 11:37:42;;;;;;;23.50;17.80;;;12.00;99.90;;;;;;5092659;28;20827;-67
2021/05/01 11:40:10;;;;;;;23.93;18.07;;;12.20;1.00;;;;;;5092784;28;20527;-66
2021/05/01 11:42:39;;;;;;;22.43;17.10;;;12.00;1.00;;;;;;5092645;28;20861;-66
2021/05/01 11:45:10;;;;;;;21.37;16.87;;;12.10;1.00;;;;;;5092755;28;20453;-66
2021/05/01 11:47:39;;;;;;;22.00;17.10;;;12.20;99.90;;;;;;5092284;28;21031;-66
2021/05/01 11:50:06;;;;;;;24.33;18.23;;;12.40;99.90;;;;;;5093017;28;20448;-66
2021/05/01 11:52:57;;;;;;;24.57;18.33;;;12.20;1.00;;;;;;5092205;28;20535;-66
2021/05/01 11:55:27;;;;;;;22.53;17.47;;;12.30;85.80;;;;;;5091703;28;21093;-66
2021/05/01 11:57:59;;;;;;;23.03;18.00;;;12.30;1.00;;;;;;5092344;28;20940;-66
2021/05/01 12:00:31;;;;;;;23.97;18.97;;;12.30;99.90;;;;;;5092167;28;20531;-66
2021/05/01 12:02:59;;;;;;;22.20;17.37;;;12.30;99.90;;;;;;5093012;28;20448;-67
2021/05/01 12:05:29;;;;;;;24.23;18.50;;;11.90;1.00;;;;;;5092197;28;20452;-66
2021/05/01 12:08:00;;;;;;;24.43;18.27;;;12.50;1.00;;;;;;5092016;28;20509;-67
2021/05/01 12:10:27;;;;;;;22.00;18.80;;;12.60;99.90;;;;;;5092116;28;20561;-66
2021/05/01 12:12:59;;;;;;;25.10;19.50;;;12.40;1.00;;;;;;5092469;28;20962;-66
2021/05/01 12:15:32;;;;;;;24.00;18.37;;;12.60;1.00;;;;;;5091715;28;20501;-66
2021/05/01 12:17:58;;;;;;;25.13;18.90;;;12.60;99.90;;;;;;5092280;28;20538;-66
2021/05/01 12:20:28;;;;;;;24.93;17.30;;;12.50;99.90;;;;;;5092056;28;20793;-66
2021/05/01 12:22:55;;;;;;;23.10;17.40;;;12.50;1.00;;;;;;5092621;28;20509;-66
2021/05/01 12:25:46;;;;;;;24.67;17.50;;;12.60;99.90;;;;;;5091990;28;20539;-66
2021/05/01 12:28:14;;;;;;;22.17;17.20;;;12.80;1.00;;;;;;5091793;28;20447;-66
2021/05/01 12:31:02;;;;;;;23.97;18.20;;;12.70;99.90;;;;;;5091869;28;20440;-66
2021/05/01 12:33:55;;;;;;;19.70;16.73;;;12.60;1.00;;;;;;5091966;28;20448;-66
2021/05/01 12:36:26;;;;;;;22.80;18.57;;;12.50;99.90;;;;;;5091380;28;20857;-66
2021/05/01 12:38:56;;;;;;;22.30;17.70;;;12.60;99.90;;;;;;5083777;28;20515;-66
2021/05/01 12:41:24;;;;;;;26.70;17.73;;;12.70;1.00;;;;;;5091733;28;20527;-66
2021/05/01 12:43:52;;;;;;;23.13;17.50;;;12.60;1.00;;;;;;5091981;28;20444;-66
2021/05/01 12:46:46;;;;;;;19.50;16.80;;;12.60;99.90;;;;;;5090946;28;20477;-66
2021/05/01 12:49:26;;;;;;;23.10;17.63;;;12.60;99.90;;;;;;5056161;28;20828;-66
2021/05/01 12:52:20;;;;;;;18.87;16.63;;;12.50;1.00;;;;;;5092350;28;20503;-66
2021/05/01 12:54:46;;;;;;;23.10;18.20;;;12.40;1.00;;;;;;5091719;28;20578;-66
2021/05/01 12:57:16;;;;;;;23.10;18.23;;;12.30;99.90;;;;;;5091705;28;20440;-66
2021/05/01 12:59:48;;;;;;;22.53;16.83;;;12.20;1.00;;;;;;5092025;28;20441;-66
2021/05/01 13:02:25;;;;;;;24.50;18.00;;;12.40;1.00;;;;;;5091519;28;20535;-66
2021/05/01 13:05:16;;;;;;;23.20;16.00;;;12.20;99.90;;;;;;5091227;28;20447;-66
2021/05/01 13:07:53;;;;;;;21.50;17.07;;;12.10;1.00;;;;;;5091577;28;20441;-66
2021/05/01 13:10:21;;;;;;;22.00;17.17;;;12.20;1.00;;;;;;5091335;28;20836;-66
2021/05/01 13:12:56;;;;;;;24.30;17.43;;;12.20;99.90;;;;;;5091889;28;20444;-67
2021/05/01 13:15:24;;;;;;;22.20;17.67;;;12.10;99.90;;;;;;5091185;28;20467;-66
2021/05/01 13:18:09;;;;;;;24.77;17.80;;;12.00;1.00;;;;;;5090942;28;20447;-66
2021/05/01 13:20:37;;;;;;;22.50;18.07;;;11.90;1.00;;;;;;5090855;28;20991;-66
2021/05/01 13:23:03;;;;;;;23.80;18.03;;;11.80;10.20;;;;;;5091902;28;20856;-67
2021/05/01 13:25:40;;;;;;;25.03;17.80;;;11.90;99.90;;;;;;5091294;28;20529;-66
2021/05/01 13:28:13;;;;;;;22.43;17.17;;;11.90;99.90;;;;;;5091155;28;20515;-66
2021/05/01 13:30:42;;;;;;;22.07;17.43;;;11.90;99.90;;;;;;5091362;28;20429;-66
2021/05/01 13:33:09;;;;;;;22.13;16.77;;;12.00;1.00;;;;;;5091461;28;20448;-66
2021/05/01 13:35:37;;;;;;;23.13;17.37;;;11.90;99.90;;;;;;5090937;28;20534;-66
2021/05/01 13:38:04;;;;;;;26.13;18.87;;;11.80;99.90;;;;;;5081947;28;20924;-66
2021/05/01 13:40:32;;;;;;;25.87;19.97;;;11.80;99.90;;;;;;5090604;28;20444;-66
2021/05/01 13:43:04;;;;;;;27.50;19.70;;;11.70;99.90;;;;;;5091061;28;20451;-66
2021/05/01 13:45:30;;;;;;;21.77;18.07;;;11.80;99.90;;;;;;5090936;28;20493;-66
2021/05/01 13:47:57;;;;;;;25.87;17.60;;;11.80;99.90;;;;;;5090923;28;20447;-66
2021/05/01 13:50:29;;;;;;;22.67;16.57;;;11.70;99.90;;;;;;5090764;28;20436;-66
2021/05/01 13:53:04;;;;;;;24.23;18.17;;;11.60;1.00;;;;;;5091212;28;20429;-66
2021/05/01 13:55:31;;;;;;;24.00;18.47;;;11.40;1.00;;;;;;5090522;28;20541;-66
2021/05/01 13:57:59;;;;;;;27.43;18.70;;;11.50;1.00;;;;;;5090777;28;20475;-66
2021/05/01 14:00:28;;;;;;;26.07;17.93;;;11.60;1.00;;;;;;5090150;28;20493;-66
2021/05/01 14:02:58;;;;;;;25.77;18.83;;;11.30;12.60;;;;;;5090864;28;20539;-66
2021/05/01 14:05:28;;;;;;;25.63;18.63;;;11.30;71.90;;;;;;5090416;28;20460;-66
2021/05/01 14:07:56;;;;;;;23.30;17.90;;;11.50;9.60;;;;;;5090689;28;20868;-66
2021/05/01 14:10:27;;;;;;;22.80;16.70;;;11.60;1.00;;;;;;5090443;28;20451;-66
2021/05/01 14:12:57;;;;;;;29.07;18.77;;;11.60;1.00;;;;;;5090897;28;20531;-66
2021/05/01 14:15:25;;;;;;;24.20;17.40;;;11.60;39.80;;;;;;5090588;28;20588;-66
2021/05/01 14:18:03;;;;;;;25.50;18.87;;;11.70;94.40;;;;;;5093562;28;20479;-66
2021/05/01 14:20:32;;;;;;;26.30;19.03;;;11.70;1.00;;;;;;5094408;28;20436;-66
2021/05/01 14:22:59;;;;;;;26.07;19.03;;;11.60;30.10;;;;;;5094910;28;20508;-67
2021/05/01 14:25:28;;;;;;;24.33;18.20;;;11.70;1.00;;;;;;5094341;28;20456;-66
2021/05/01 14:27:55;;;;;;;27.90;20.10;;;11.50;1.00;;;;;;5094419;28;20763;-66
2021/05/01 14:30:38;;;;;;;24.03;17.40;;;11.50;90.50;;;;;;5086363;28;20472;-66
2021/05/01 14:33:05;;;;;;;26.63;19.47;;;11.50;99.90;;;;;;5091296;28;20442;-66
2021/05/01 14:35:33;;;;;;;23.37;18.33;;;11.60;99.90;;;;;;5094336;28;20563;-66
2021/05/01 14:38:00;;;;;;;25.47;18.30;;;11.50;99.90;;;;;;5094323;28;20502;-66
2021/05/01 14:40:26;;;;;;;28.70;18.90;;;11.50;99.90;;;;;;5093641;28;20616;-66
2021/05/01 14:42:56;;;;;;;24.93;16.70;;;11.20;99.90;;;;;;5094558;28;20531;-66
2021/05/01 14:45:25;;;;;;;25.63;18.80;;;11.30;99.90;;;;;;5094050;28;20452;-66
2021/05/01 14:47:53;;;;;;;25.67;17.83;;;11.60;99.90;;;;;;5094056;28;20527;-66
2021/05/01 14:50:28;;;;;;;22.27;17.93;;;11.90;99.90;;;;;;5093967;28;20479;-66
2021/05/01 14:53:09;;;;;;;22.27;17.30;;;12.60;99.90;;;;;;5094074;28;20456;-66
2021/05/01 14:55:36;;;;;;;25.23;17.90;;;12.50;1.00;;;;;;5092928;28;21122;-66
2021/05/01 14:58:02;;;;;;;26.80;17.70;;;12.10;1.00;;;;;;5093668;28;20949;-66
2021/05/01 15:00:29;;;;;;;26.27;17.40;;;11.80;11.30;;;;;;5093473;28;20808;-66
2021/05/01 15:02:55;;;;;;;23.43;17.03;;;11.60;99.90;;;;;;5094103;28;21038;-66
2021/05/01 15:05:22;;;;;;;22.43;17.83;;;11.60;99.90;;;;;;5093432;28;20539;-66
2021/05/01 15:07:51;;;;;;;22.60;16.30;;;11.70;99.90;;;;;;5093437;28;20440;-66
2021/05/01 15:10:21;;;;;;;20.53;16.00;;;11.80;59.40;;;;;;5093149;28;20448;-66
2021/05/01 15:12:59;;;;;;;21.80;16.33;;;11.70;1.00;;;;;;5093754;28;20452;-66
2021/05/01 15:15:39;;;;;;;20.47;17.37;;;11.60;60.50;;;;;;5092222;28;20925;-66
2021/05/01 15:18:06;;;;;;;22.93;17.13;;;11.70;99.90;;;;;;5093168;28;20451;-66
2021/05/01 15:20:39;;;;;;;25.73;17.97;;;11.60;93.80;;;;;;5092857;28;20455;-66
2021/05/01 15:23:11;;;;;;;25.10;17.30;;;11.60;99.90;;;;;;5093339;28;20894;-66
2021/05/01 15:25:39;;;;;;;23.67;19.13;;;11.70;99.90;;;;;;5093505;28;20567;-66
2021/05/01 15:28:06;;;;;;;19.23;16.17;;;11.80;99.90;;;;;;5092548;28;20444;-66
2021/05/01 15:30:37;;;;;;;24.27;18.50;;;11.70;37.40;;;;;;5093065;28;20445;-66
2021/05/01 15:33:06;;;;;;;20.00;16.00;;;11.70;99.90;;;;;;5093821;28;20451;-66
2021/05/01 15:35:33;;;;;;;22.27;18.40;;;11.60;99.90;;;;;;5093124;28;20483;-67
2021/05/01 15:38:00;;;;;;;22.93;16.50;;;11.60;99.90;;;;;;5093433;28;20639;-66
2021/05/01 15:40:27;;;;;;;21.90;16.20;;;11.60;99.90;;;;;;5092139;28;20449;-66
2021/05/01 15:42:54;;;;;;;21.60;17.87;;;11.70;99.90;;;;;;5093514;28;20532;-66
2021/05/01 15:45:21;;;;;;;22.17;17.00;;;11.80;99.90;;;;;;5092892;28;20444;-66
2021/05/01 15:47:47;;;;;;;21.53;16.53;;;11.50;99.90;;;;;;5093114;28;20602;-66
2021/05/01 15:50:15;;;;;;;24.43;17.80;;;11.60;99.90;;;;;;5093023;28;20527;-66
2021/05/01 15:52:42;;;;;;;25.43;19.23;;;11.50;99.90;;;;;;5093235;28;20942;-66
2021/05/01 15:55:11;;;;;;;22.03;18.07;;;11.60;99.90;;;;;;5093072;28;20480;-66
2021/05/01 15:57:39;;;;;;;19.83;16.10;;;11.70;99.90;;;;;;5092115;28;20436;-67
2021/05/01 16:00:10;;;;;;;22.40;17.67;;;11.60;99.90;;;;;;5092923;28;20452;-67
2021/05/01 16:02:36;;;;;;;27.13;18.00;;;11.60;99.90;;;;;;5092566;28;20452;-66
2021/05/01 16:05:06;;;;;;;21.07;18.33;;;11.50;99.90;;;;;;5092927;28;20445;-66
2021/05/01 16:07:33;;;;;;;26.20;17.43;;;11.40;99.90;;;;;;5092007;28;20457;-67
2021/05/01 16:09:59;;;;;;;24.63;18.00;;;11.20;99.90;;;;;;5092599;28;21019;-66
2021/05/01 16:12:27;;;;;;;28.83;21.27;;;11.20;99.90;;;;;;5091999;28;20445;-66
2021/05/01 16:14:53;;;;;;;25.80;18.37;;;11.40;99.90;;;;;;5092614;28;20960;-66
2021/05/01 16:17:21;;;;;;;26.40;19.73;;;11.40;99.90;;;;;;5090200;28;20496;-66
2021/05/01 16:19:47;;;;;;;23.83;18.90;;;11.40;99.90;;;;;;5092806;28;20459;-66
2021/05/01 16:22:15;;;;;;;32.73;19.90;;;11.60;99.90;;;;;;5092349;28;20448;-66
2021/05/01 16:24:42;;;;;;;27.43;19.20;;;11.50;99.90;;;;;;5092345;28;20460;-66
2021/05/01 16:27:09;;;;;;;25.63;18.83;;;11.50;99.90;;;;;;5091669;28;20452;-66
2021/05/01 16:29:36;;;;;;;25.93;18.67;;;11.20;99.90;;;;;;5091416;28;20448;-66
2021/05/01 16:32:03;;;;;;;25.83;20.10;;;11.30;99.90;;;;;;5092638;28;20476;-66
2021/05/01 16:34:30;;;;;;;25.77;18.50;;;11.30;99.90;;;;;;5091496;28;20504;-66
2021/05/01 16:36:56;;;;;;;27.87;20.37;;;11.30;99.90;;;;;;5087329;28;20489;-66
2021/05/01 16:39:24;;;;;;;28.40;19.23;;;11.20;99.90;;;;;;5086529;28;20439;-66
2021/05/01 16:41:51;;;;;;;28.13;19.60;;;11.10;99.90;;;;;;5092102;28;20816;-67
2021/05/01 16:44:17;;;;;;;28.47;19.63;;;11.10;99.90;;;;;;5091723;28;20448;-66
2021/05/01 16:46:43;;;;;;;25.80;20.10;;;11.20;99.90;;;;;;5091579;28;20484;-67
2021/05/01 16:49:12;;;;;;;27.10;20.33;;;11.10;99.90;;;;;;5092093;28;20828;-67
2021/05/01 16:51:39;;;;;;;30.57;20.23;;;11.10;99.90;;;;;;5091612;28;20798;-67
2021/05/01 16:54:06;;;;;;;28.13;19.73;;;11.20;99.90;;;;;;5091860;28;20436;-67
2021/05/01 16:56:33;;;;;;;30.03;21.40;;;11.00;99.90;;;;;;5091312;28;20575;-66
2021/05/01 16:59:00;;;;;;;31.83;22.00;;;11.10;99.90;;;;;;5092122;28;20444;-66
2021/05/01 17:01:27;;;;;;;27.80;20.40;;;10.70;99.90;;;;;;5091424;28;20858;-66
2021/05/01 17:03:54;;;;;;;29.90;20.43;;;10.90;99.90;;;;;;5091720;28;20452;-66
2021/05/01 17:06:22;;;;;;;25.07;18.50;;;11.10;99.90;;;;;;5090569;28;20477;-66
2021/05/01 17:08:50;;;;;;;31.07;20.80;;;11.00;99.90;;;;;;5091369;28;20456;-64
2021/05/01 17:11:16;;;;;;;29.70;21.20;;;11.00;99.90;;;;;;5091486;28;20532;-66
2021/05/01 17:13:43;;;;;;;28.40;20.40;;;11.00;99.90;;;;;;5083135;28;20463;-65
2021/05/01 17:16:11;;;;;;;24.20;19.40;;;11.10;99.90;;;;;;5088628;28;20563;-69
2021/05/01 17:18:38;;;;;;;31.23;20.77;;;11.10;99.90;;;;;;5088111;28;20448;-73
2021/05/01 17:21:05;;;;;;;27.83;19.33;;;11.10;99.90;;;;;;5088951;28;20532;-73
2021/05/01 17:23:32;;;;;;;25.00;19.07;;;11.10;99.90;;;;;;5088092;28;20892;-69
2021/05/01 17:26:00;;;;;;;23.97;18.87;;;11.10;99.90;;;;;;5087628;28;20981;-69
2021/05/01 17:28:28;;;;;;;30.70;20.30;;;11.10;99.90;;;;;;5086112;28;20484;-69
2021/05/01 17:30:55;;;;;;;28.20;19.77;;;11.10;99.90;;;;;;5088609;28;20787;-69
2021/05/01 17:33:21;;;;;;;28.63;20.87;;;11.10;99.90;;;;;;5087694;28;20948;-70
2021/05/01 17:35:48;;;;;;;25.03;19.07;;;11.10;99.90;;;;;;5088174;28;20502;-69
2021/05/01 17:38:16;;;;;;;30.17;20.87;;;11.00;99.90;;;;;;5079876;28;20464;-69
2021/05/01 17:40:43;;;;;;;27.90;19.50;;;10.90;99.90;;;;;;5088542;28;20459;-68
2021/05/01 17:43:10;;;;;;;27.60;20.77;;;10.90;99.90;;;;;;5088683;28;20461;-68
2021/05/01 17:45:37;;;;;;;29.30;21.93;;;10.90;99.90;;;;;;5088228;28;20548;-66
2021/05/01 17:48:04;;;;;;;25.03;19.57;;;11.00;99.90;;;;;;5082611;28;20539;-69
2021/05/01 17:50:31;;;;;;;29.47;20.00;;;10.90;99.90;;;;;;5088053;28;20457;-69
2021/05/01 17:52:58;;;;;;;29.07;20.67;;;11.00;99.90;;;;;;5089187;28;20532;-68
2021/05/01 17:55:24;;;;;;;29.20;21.40;;;10.90;99.90;;;;;;5087578;28;20506;-69
2021/05/01 17:57:51;;;;;;;29.17;21.97;;;10.80;99.90;;;;;;5087505;28;20778;-68
2021/05/01 18:00:22;;;;;;;33.23;20.57;;;10.90;99.90;;;;;;5088221;28;20447;-67
2021/05/01 18:02:50;;;;;;;32.77;20.60;;;10.70;99.90;;;;;;5089140;28;20445;-68
2021/05/01 18:05:18;;;;;;;32.00;22.27;;;10.70;99.90;;;;;;5088453;28;20509;-69
2021/05/01 18:07:45;;;;;;;29.13;22.50;;;10.80;99.90;;;;;;5096276;28;20507;-68
2021/05/01 18:10:14;;;;;;;32.30;20.90;;;10.60;99.90;;;;;;5099419;28;20440;-69
2021/05/01 18:12:41;;;;;;;33.00;22.63;;;10.60;99.90;;;;;;5102733;28;20452;-70
2021/05/01 18:15:10;;;;;;;27.03;19.27;;;10.60;99.90;;;;;;5105830;28;20456;-68
2021/05/01 18:17:39;;;;;;;31.70;20.20;;;10.60;99.90;;;;;;5104263;28;20516;-67
2021/05/01 18:20:07;;;;;;;32.03;22.43;;;10.70;99.90;;;;;;5103167;28;20536;-68
2021/05/01 18:22:35;;;;;;;33.27;21.80;;;10.70;99.90;;;;;;5104009;28;20481;-66
2021/05/01 18:25:03;;;;;;;33.73;22.70;;;10.70;99.90;;;;;;5102069;28;20457;-68
2021/05/01 18:27:31;;;;;;;39.37;23.23;;;10.70;99.90;;;;;;5096455;28;20459;-69
2021/05/01 18:30:04;;;;;;;29.90;22.40;;;10.70;99.90;;;;;;5094158;28;21017;-69
2021/05/01 18:32:32;;;;;;;30.10;22.53;;;10.60;99.90;;;;;;5089914;28;20480;-67
2021/05/01 18:35:01;;;;;;;29.03;21.30;;;10.50;99.90;;;;;;5088451;28;20604;-68
2021/05/01 18:37:28;;;;;;;35.30;24.17;;;10.40;99.90;;;;;;5083543;28;20587;-69